Aviation Digital Data Service (ADDS)

Output produced by METARs form (2339 UTC 25 February 2018)
found at http://www.aviationweather.gov/adds/metars/
 
SOCA 252330Z AUTO 02003KT CAVOK 25/23 Q1012 TEMPO SHRA FEW012TCU
TAF SOCA 252200Z 2600/2624 VRB02KT 9999 SCT020 BKN045 
     PROB30 
     TEMPO 2600/2624 SHRA FEW012TCU 
     FM261400 04010KT 9999 SCT025 SCT050 
     FM262300 VRB02KT 9999 SCT020 SCT040